Time;durP1;ratioP1;P1;durP2;ratioP2;P2;SDS_P1;SDS_P2;PMS_P1;PMS_P2;Temp;Humidity;BMP_temperature;BMP_pressure;BME280_temperature;BME280_humidity;BME280_pressure;Samples;Min_cycle;Max_cycle;Signal;HPM_P1;HPM_P2
2022/03/12 00:01:46;;;;;;;17.10;7.30;;;;;;;;;;4994807;28;20205;-84
2022/03/12 00:04:13;;;;;;;20.17;9.30;;;;;;;;;;4997105;28;20319;-85
2022/03/12 00:06:41;;;;;;;17.67;8.03;;;;;;;;;;4994840;28;20209;-86
2022/03/12 00:09:10;;;;;;;17.07;7.50;;;;;;;;;;4995259;28;20236;-84
2022/03/12 00:11:40;;;;;;;16.00;7.67;;;;;;;;;;4995394;28;20196;-85
2022/03/12 00:14:08;;;;;;;21.07;8.87;;;;;;;;;;4996079;28;20600;-85
2022/03/12 00:16:35;;;;;;;16.57;7.47;;;;;;;;;;4993136;28;20660;-85
2022/03/12 00:19:04;;;;;;;21.73;7.90;;;;;;;;;;4997869;28;20209;-85
2022/03/12 00:21:35;;;;;;;17.30;8.10;;;;;;;;;;4995542;28;20228;-86
2022/03/12 00:24:03;;;;;;;15.70;7.20;;;;;;;;;;4996025;28;20244;-85
2022/03/12 00:26:33;;;;;;;20.43;7.27;;;;;;;;;;4987948;28;20268;-85
2022/03/12 00:29:00;;;;;;;16.50;6.80;;;;;;;;;;4991953;28;20228;-84
2022/03/12 00:31:28;;;;;;;20.93;6.93;;;;;;;;;;4988921;28;20283;-84
2022/03/12 00:33:55;;;;;;;20.30;7.00;;;;;;;;;;4993199;28;20225;-84
2022/03/12 00:36:22;;;;;;;20.13;7.07;;;;;;;;;;4992498;28;20220;-84
2022/03/12 00:38:50;;;;;;;15.57;6.60;;;;;;;;;;4990710;28;20207;-84
2022/03/12 00:41:17;;;;;;;15.50;6.73;;;;;;;;;;4990578;28;20206;-84
2022/03/12 00:43:46;;;;;;;16.63;6.37;;;;;;;;;;4994487;28;20307;-84
2022/03/12 00:46:13;;;;;;;16.60;7.10;;;;;;;;;;4991749;28;20220;-85
2022/03/12 00:48:40;;;;;;;16.47;6.40;;;;;;;;;;4992968;28;20328;-85
2022/03/12 00:51:08;;;;;;;13.40;6.23;;;;;;;;;;4992863;28;20654;-86
2022/03/12 00:53:35;;;;;;;19.50;7.23;;;;;;;;;;4990710;28;20233;-84
2022/03/12 00:56:09;;;;;;;14.87;6.80;;;;;;;;;;4989999;28;20204;-86
2022/03/12 00:58:37;;;;;;;17.27;5.90;;;;;;;;;;4995031;28;20653;-85
2022/03/12 01:01:06;;;;;;;14.23;5.97;;;;;;;;;;4994180;28;20200;-86
2022/03/12 01:03:33;;;;;;;18.67;6.43;;;;;;;;;;4992905;28;20712;-85
2022/03/12 01:06:01;;;;;;;16.47;6.83;;;;;;;;;;4992442;28;20212;-84
2022/03/12 01:08:29;;;;;;;16.70;6.97;;;;;;;;;;4992809;28;20221;-86
2022/03/12 01:10:57;;;;;;;18.77;6.80;;;;;;;;;;4993687;28;20237;-84
2022/03/12 01:13:25;;;;;;;15.70;6.07;;;;;;;;;;4994977;28;20243;-85
2022/03/12 01:15:52;;;;;;;12.50;5.50;;;;;;;;;;4991560;28;20985;-84
2022/03/12 01:18:23;;;;;;;18.50;6.70;;;;;;;;;;4994562;28;20256;-86
2022/03/12 01:20:50;;;;;;;15.53;6.90;;;;;;;;;;4992069;28;20287;-86
2022/03/12 01:23:18;;;;;;;16.60;5.40;;;;;;;;;;4992077;28;20229;-85
2022/03/12 01:25:47;;;;;;;12.57;5.80;;;;;;;;;;4995450;28;20217;-85
2022/03/12 01:28:15;;;;;;;13.90;6.27;;;;;;;;;;4996254;28;20292;-85
2022/03/12 01:30:43;;;;;;;17.57;6.90;;;;;;;;;;4993883;28;20297;-84
2022/03/12 01:33:10;;;;;;;18.33;6.33;;;;;;;;;;4996232;28;20233;-85
2022/03/12 01:35:39;;;;;;;11.63;5.73;;;;;;;;;;4992447;28;20221;-85
2022/03/12 01:38:07;;;;;;;15.60;5.90;;;;;;;;;;4995508;28;20236;-85
2022/03/12 01:40:34;;;;;;;12.17;5.33;;;;;;;;;;4994429;28;20640;-86
2022/03/12 01:43:02;;;;;;;13.27;5.93;;;;;;;;;;4990764;28;20587;-85
2022/03/12 01:45:30;;;;;;;16.67;6.17;;;;;;;;;;4998187;28;20205;-86
2022/03/12 01:47:57;;;;;;;16.07;5.73;;;;;;;;;;4996524;28;20255;-85
2022/03/12 01:50:25;;;;;;;11.23;5.47;;;;;;;;;;4998000;28;20232;-84
2022/03/12 01:52:55;;;;;;;15.40;5.67;;;;;;;;;;4995226;28;20229;-85
2022/03/12 01:55:22;;;;;;;16.03;6.10;;;;;;;;;;4992872;28;20224;-85
2022/03/12 01:57:50;;;;;;;10.57;4.90;;;;;;;;;;4998250;28;20676;-85
2022/03/12 02:00:23;;;;;;;17.30;6.27;;;;;;;;;;4998010;28;20202;-86
2022/03/12 02:02:53;;;;;;;13.43;5.60;;;;;;;;;;4994412;28;20232;-86
2022/03/12 02:05:21;;;;;;;16.73;5.20;;;;;;;;;;4994372;28;20208;-86
2022/03/12 02:07:48;;;;;;;12.90;5.43;;;;;;;;;;4995657;28;21361;-85
2022/03/12 02:10:18;;;;;;;12.07;5.13;;;;;;;;;;4989659;28;20229;-84
2022/03/12 02:12:47;;;;;;;13.10;5.73;;;;;;;;;;4995842;28;20290;-85
2022/03/12 02:15:17;;;;;;;18.20;5.43;;;;;;;;;;4991877;28;20533;-84
2022/03/12 02:17:44;;;;;;;13.73;5.33;;;;;;;;;;4994972;28;20221;-84
2022/03/12 02:20:13;;;;;;;14.87;5.10;;;;;;;;;;4989205;28;20217;-85
2022/03/12 02:22:41;;;;;;;14.33;5.37;;;;;;;;;;4994587;28;20240;-84
2022/03/12 02:25:10;;;;;;;12.43;5.63;;;;;;;;;;4991762;28;20232;-85
2022/03/12 02:27:38;;;;;;;11.80;4.50;;;;;;;;;;4988843;28;20662;-84
2022/03/12 02:30:08;;;;;;;12.33;5.30;;;;;;;;;;4992231;28;20231;-84
2022/03/12 02:32:35;;;;;;;11.60;4.80;;;;;;;;;;4992601;28;20225;-84
2022/03/12 02:35:03;;;;;;;11.80;5.10;;;;;;;;;;4989209;28;20223;-84
2022/03/12 02:37:33;;;;;;;9.67;4.37;;;;;;;;;;4994074;28;20236;-85
2022/03/12 02:40:01;;;;;;;11.10;4.87;;;;;;;;;;5000609;28;20201;-84
2022/03/12 02:42:31;;;;;;;10.50;4.53;;;;;;;;;;5003854;28;20292;-85
2022/03/12 02:45:00;;;;;;;12.13;5.20;;;;;;;;;;4989311;28;20212;-85
2022/03/12 02:47:29;;;;;;;12.03;4.83;;;;;;;;;;4992720;28;20233;-85
2022/03/12 02:49:58;;;;;;;15.40;5.30;;;;;;;;;;4992466;28;20232;-85
2022/03/12 02:52:27;;;;;;;13.90;5.27;;;;;;;;;;5003241;22;20244;-77
2022/03/12 02:54:55;;;;;;;13.17;5.43;;;;;;;;;;4985333;28;20198;-76
2022/03/12 02:57:25;;;;;;;11.80;4.77;;;;;;;;;;4981249;28;20283;-77
2022/03/12 02:59:54;;;;;;;12.13;4.87;;;;;;;;;;4984514;28;20430;-77
2022/03/12 03:02:31;;;;;;;17.17;4.73;;;;;;;;;;4989852;28;20221;-77
2022/03/12 03:04:58;;;;;;;11.23;4.47;;;;;;;;;;4984208;28;20205;-77
2022/03/12 03:07:26;;;;;;;12.63;4.37;;;;;;;;;;4987386;28;20225;-77
2022/03/12 03:09:53;;;;;;;10.40;4.97;;;;;;;;;;4982998;28;20224;-77
2022/03/12 03:12:21;;;;;;;10.17;4.90;;;;;;;;;;4988439;28;20213;-77
2022/03/12 03:14:50;;;;;;;8.03;4.60;;;;;;;;;;4985533;28;20201;-77
2022/03/12 03:17:19;;;;;;;9.87;4.43;;;;;;;;;;4981683;28;20205;-77
2022/03/12 03:19:46;;;;;;;10.13;4.73;;;;;;;;;;4986944;28;20294;-77
2022/03/12 03:22:16;;;;;;;9.93;4.60;;;;;;;;;;4982539;28;20241;-77
2022/03/12 03:24:43;;;;;;;11.20;5.33;;;;;;;;;;4988499;28;20228;-77
2022/03/12 03:27:10;;;;;;;9.03;4.27;;;;;;;;;;4987158;28;20209;-77
2022/03/12 03:29:37;;;;;;;13.20;5.17;;;;;;;;;;4987380;28;20229;-77
2022/03/12 03:32:05;;;;;;;9.43;3.80;;;;;;;;;;4989537;28;20213;-77
2022/03/12 03:34:34;;;;;;;12.17;4.10;;;;;;;;;;4985935;28;20220;-77
2022/03/12 03:37:02;;;;;;;10.53;4.13;;;;;;;;;;4985002;28;20533;-77
2022/03/12 03:39:29;;;;;;;12.17;4.40;;;;;;;;;;4985743;28;20225;-77
2022/03/12 03:41:56;;;;;;;10.97;4.60;;;;;;;;;;4990498;28;20863;-78
2022/03/12 03:44:28;;;;;;;8.57;4.30;;;;;;;;;;4987706;28;20229;-78
2022/03/12 03:46:55;;;;;;;9.73;4.80;;;;;;;;;;4984847;28;20248;-78
2022/03/12 03:49:24;;;;;;;9.50;4.37;;;;;;;;;;4986192;28;20236;-77
2022/03/12 03:51:53;;;;;;;11.00;4.60;;;;;;;;;;4987173;28;20216;-77
2022/03/12 03:54:20;;;;;;;10.63;4.47;;;;;;;;;;4985693;28;20296;-78
2022/03/12 03:56:48;;;;;;;14.37;4.20;;;;;;;;;;4984389;28;20213;-77
2022/03/12 03:59:16;;;;;;;9.47;4.47;;;;;;;;;;4986788;28;20196;-77
2022/03/12 04:01:43;;;;;;;15.53;4.87;;;;;;;;;;4987240;28;20208;-78
2022/03/12 04:04:12;;;;;;;12.57;4.50;;;;;;;;;;4984613;28;20855;-77
2022/03/12 04:06:39;;;;;;;10.83;5.07;;;;;;;;;;4989982;28;20202;-77
2022/03/12 04:09:08;;;;;;;9.90;4.43;;;;;;;;;;4989089;28;20244;-78
2022/03/12 04:11:38;;;;;;;9.27;4.00;;;;;;;;;;4995683;28;20655;-77
2022/03/12 04:14:06;;;;;;;12.40;4.23;;;;;;;;;;4989865;28;20266;-77
2022/03/12 04:16:33;;;;;;;10.00;3.90;;;;;;;;;;4990072;28;21266;-77
2022/03/12 04:19:06;;;;;;;11.67;4.47;;;;;;;;;;4986620;28;20200;-78
2022/03/12 04:21:35;;;;;;;11.70;4.27;;;;;;;;;;4979993;28;20209;-77
2022/03/12 04:24:02;;;;;;;12.63;4.43;;;;;;;;;;4992550;28;20711;-77
2022/03/12 04:26:35;;;;;;;11.00;4.60;;;;;;;;;;4986421;28;20201;-78
2022/03/12 04:29:08;;;;;;;11.40;4.47;;;;;;;;;;4982690;28;20654;-75
2022/03/12 04:31:35;;;;;;;9.83;4.67;;;;;;;;;;4984310;28;20470;-76
2022/03/12 04:34:02;;;;;;;12.87;6.00;;;;;;;;;;4986804;28;20220;-76
2022/03/12 04:36:30;;;;;;;10.17;4.33;;;;;;;;;;4977158;28;20973;-76
2022/03/12 04:38:57;;;;;;;10.13;4.33;;;;;;;;;;4980997;28;20216;-78
2022/03/12 04:41:24;;;;;;;53.97;22.93;;;;;;;;;;4976850;28;20599;-77
2022/03/12 04:43:52;;;;;;;32.67;12.67;;;;;;;;;;4984699;28;20244;-76
2022/03/12 04:46:20;;;;;;;22.00;7.60;;;;;;;;;;4985875;28;20698;-77
2022/03/12 04:48:47;;;;;;;7.87;4.37;;;;;;;;;;4994023;28;20304;-77
2022/03/12 04:51:16;;;;;;;17.90;6.03;;;;;;;;;;4989568;28;20227;-77
2022/03/12 04:53:43;;;;;;;11.57;5.83;;;;;;;;;;4991470;28;20651;-76
2022/03/12 04:56:11;;;;;;;16.73;7.60;;;;;;;;;;4992064;28;20204;-77
2022/03/12 04:58:39;;;;;;;15.57;7.70;;;;;;;;;;4991054;28;20312;-76
2022/03/12 05:01:08;;;;;;;15.20;7.83;;;;;;;;;;4989946;28;20750;-76
2022/03/12 05:03:35;;;;;;;15.23;6.97;;;;;;;;;;4984390;28;20851;-76
2022/03/12 05:06:03;;;;;;;11.97;5.77;;;;;;;;;;4990254;28;20215;-76
2022/03/12 05:08:36;;;;;;;26.17;9.00;;;;;;;;;;4988949;28;20201;-76
2022/03/12 05:11:03;;;;;;;17.73;8.27;;;;;;;;;;4989540;28;20229;-77
2022/03/12 05:13:31;;;;;;;18.17;9.23;;;;;;;;;;4992882;28;20228;-76
2022/03/12 05:16:01;;;;;;;20.50;9.93;;;;;;;;;;4991414;28;21574;-77
2022/03/12 05:18:31;;;;;;;19.30;8.90;;;;;;;;;;4989243;28;20648;-77
2022/03/12 05:20:59;;;;;;;13.77;6.27;;;;;;;;;;4993031;28;20291;-76
2022/03/12 05:23:26;;;;;;;21.07;9.90;;;;;;;;;;4997862;28;20232;-76
2022/03/12 05:25:54;;;;;;;16.37;8.87;;;;;;;;;;4994243;28;20209;-76
2022/03/12 05:28:23;;;;;;;13.27;6.40;;;;;;;;;;4990114;28;20200;-75
2022/03/12 05:30:50;;;;;;;15.83;7.00;;;;;;;;;;4989426;28;20469;-76
2022/03/12 05:33:18;;;;;;;17.77;7.07;;;;;;;;;;4996242;28;20307;-77
2022/03/12 05:35:48;;;;;;;10.27;5.53;;;;;;;;;;4992390;28;20204;-75
2022/03/12 05:38:16;;;;;;;14.93;6.63;;;;;;;;;;4994747;28;20211;-76
2022/03/12 05:40:43;;;;;;;15.47;7.03;;;;;;;;;;4995359;28;20209;-76
2022/03/12 05:43:12;;;;;;;17.57;6.73;;;;;;;;;;4995288;28;20220;-77
2022/03/12 05:45:40;;;;;;;11.30;5.00;;;;;;;;;;4996068;28;20212;-74
2022/03/12 05:48:09;;;;;;;10.93;4.93;;;;;;;;;;4992863;28;20455;-77
2022/03/12 05:50:36;;;;;;;14.23;4.80;;;;;;;;;;4990446;28;20488;-77
2022/03/12 05:53:05;;;;;;;9.67;4.20;;;;;;;;;;5001784;28;20245;-75
2022/03/12 05:55:33;;;;;;;13.47;4.93;;;;;;;;;;4993138;28;20662;-75
2022/03/12 05:58:00;;;;;;;11.33;5.00;;;;;;;;;;4992629;28;20467;-75
2022/03/12 06:00:27;;;;;;;13.63;5.93;;;;;;;;;;4996226;28;21012;-76
2022/03/12 06:02:55;;;;;;;17.23;6.90;;;;;;;;;;4993306;28;20570;-77
2022/03/12 06:05:23;;;;;;;14.83;6.17;;;;;;;;;;4992923;28;20458;-76
2022/03/12 06:07:51;;;;;;;15.93;6.70;;;;;;;;;;4995872;28;20467;-77
2022/03/12 06:10:21;;;;;;;12.50;5.27;;;;;;;;;;4992789;28;20233;-76
2022/03/12 06:12:49;;;;;;;11.97;5.00;;;;;;;;;;4988645;28;20510;-75
2022/03/12 06:15:21;;;;;;;10.67;4.57;;;;;;;;;;4992868;28;20219;-74
2022/03/12 06:17:49;;;;;;;12.47;4.90;;;;;;;;;;4993158;28;20300;-75
2022/03/12 06:20:17;;;;;;;11.50;4.67;;;;;;;;;;4990977;28;20468;-78
2022/03/12 06:22:44;;;;;;;15.53;5.00;;;;;;;;;;4999292;28;20252;-80
2022/03/12 06:25:12;;;;;;;9.03;4.37;;;;;;;;;;4999237;28;20210;-76
2022/03/12 06:27:42;;;;;;;13.03;5.20;;;;;;;;;;4999179;28;20296;-78
2022/03/12 06:30:37;;;;;;;15.23;5.17;;;;;;;;;;5002969;28;20470;-79
2022/03/12 06:33:05;;;;;;;16.60;4.67;;;;;;;;;;4993896;28;20478;-77
2022/03/12 06:35:32;;;;;;;12.93;4.57;;;;;;;;;;4993559;28;20201;-80
2022/03/12 06:38:00;;;;;;;11.73;4.77;;;;;;;;;;4995440;28;20262;-77
2022/03/12 06:40:28;;;;;;;11.20;4.57;;;;;;;;;;4994569;28;20204;-78
2022/03/12 06:42:59;;;;;;;11.40;5.40;;;;;;;;;;4997354;28;20543;-76
2022/03/12 06:45:26;;;;;;;11.50;4.53;;;;;;;;;;4995206;28;20233;-77
2022/03/12 06:47:53;;;;;;;9.53;5.03;;;;;;;;;;4991906;28;20693;-77
2022/03/12 06:50:23;;;;;;;11.53;5.10;;;;;;;;;;5001176;28;20307;-78
2022/03/12 06:52:50;;;;;;;11.20;5.20;;;;;;;;;;5002664;28;20231;-76
2022/03/12 06:55:18;;;;;;;8.57;4.30;;;;;;;;;;4993673;28;20293;-78
2022/03/12 06:57:47;;;;;;;12.10;4.80;;;;;;;;;;4986972;28;20212;-77
2022/03/12 07:00:17;;;;;;;9.83;5.13;;;;;;;;;;4994401;28;20201;-77
2022/03/12 07:02:44;;;;;;;10.13;4.67;;;;;;;;;;4985957;28;20227;-76
2022/03/12 07:05:12;;;;;;;11.73;5.40;;;;;;;;;;4987900;28;20211;-76
2022/03/12 07:07:39;;;;;;;12.13;5.30;;;;;;;;;;4989787;28;20296;-76
2022/03/12 07:10:07;;;;;;;11.97;5.30;;;;;;;;;;4992687;28;20228;-78
2022/03/12 07:12:34;;;;;;;22.00;7.90;;;;;;;;;;4995091;28;20236;-78
2022/03/12 07:15:01;;;;;;;23.43;9.93;;;;;;;;;;4992936;28;20236;-77
2022/03/12 07:17:30;;;;;;;19.70;7.50;;;;;;;;;;4992371;28;20272;-77
2022/03/12 07:19:57;;;;;;;19.87;9.13;;;;;;;;;;4993465;28;20209;-75
2022/03/12 07:22:24;;;;;;;17.80;7.70;;;;;;;;;;4993885;28;20295;-75
2022/03/12 07:24:51;;;;;;;19.37;7.90;;;;;;;;;;4995085;28;20231;-77
2022/03/12 07:27:18;;;;;;;18.93;8.40;;;;;;;;;;4996863;28;20211;-78
2022/03/12 07:29:45;;;;;;;16.83;8.10;;;;;;;;;;4996431;28;20197;-78
2022/03/12 07:32:13;;;;;;;15.27;7.27;;;;;;;;;;4992219;28;20208;-76
2022/03/12 07:34:41;;;;;;;14.57;7.27;;;;;;;;;;4990327;28;20321;-77
2022/03/12 07:37:11;;;;;;;52.50;28.90;;;;;;;;;;4996166;28;20243;-77
2022/03/12 07:39:38;;;;;;;11.87;6.87;;;;;;;;;;4990749;28;20209;-76
2022/03/12 07:42:06;;;;;;;17.13;7.30;;;;;;;;;;4995694;28;20208;-77
2022/03/12 07:44:33;;;;;;;13.77;6.13;;;;;;;;;;5001118;28;20675;-77
2022/03/12 07:47:00;;;;;;;13.67;8.50;;;;;;;;;;4989549;28;20656;-76
2022/03/12 07:49:28;;;;;;;17.03;8.53;;;;;;;;;;4991831;28;20560;-77
2022/03/12 07:52:18;;;;;;;11.23;6.10;;;;;;;;;;4989971;28;20556;-76
2022/03/12 07:54:47;;;;;;;9.70;5.53;;;;;;;;;;4979732;28;20389;-75
2022/03/12 07:57:14;;;;;;;12.17;5.60;;;;;;;;;;4993611;28;20214;-76
2022/03/12 07:59:42;;;;;;;12.73;5.43;;;;;;;;;;4996769;28;20193;-79
2022/03/12 08:02:09;;;;;;;9.23;4.57;;;;;;;;;;4999208;28;20192;-79
2022/03/12 08:04:36;;;;;;;9.93;5.20;;;;;;;;;;5002823;28;20250;-80
2022/03/12 08:07:04;;;;;;;9.37;4.90;;;;;;;;;;5002635;28;20307;-78
2022/03/12 08:09:32;;;;;;;9.73;4.93;;;;;;;;;;4988945;28;20585;-78
2022/03/12 08:12:00;;;;;;;10.63;5.10;;;;;;;;;;5006953;28;20235;-79
2022/03/12 08:14:28;;;;;;;9.50;5.80;;;;;;;;;;4996159;28;20217;-77
2022/03/12 08:16:55;;;;;;;9.00;4.93;;;;;;;;;;4988431;28;20556;-77
2022/03/12 08:19:22;;;;;;;10.57;5.10;;;;;;;;;;4997612;28;20291;-77
2022/03/12 08:21:52;;;;;;;9.50;5.17;;;;;;;;;;4996993;28;20213;-78
2022/03/12 08:24:20;;;;;;;9.97;5.10;;;;;;;;;;4997229;28;20216;-78
2022/03/12 08:26:48;;;;;;;8.90;4.70;;;;;;;;;;4999803;28;20204;-77
2022/03/12 08:29:23;;;;;;;11.77;6.07;;;;;;;;;;5004621;28;20225;-76
2022/03/12 08:31:50;;;;;;;8.20;4.63;;;;;;;;;;4991240;28;20220;-76
2022/03/12 08:34:17;;;;;;;10.87;5.20;;;;;;;;;;4993309;28;20254;-76
2022/03/12 08:36:45;;;;;;;13.20;5.00;;;;;;;;;;4995952;28;20576;-76
2022/03/12 08:39:14;;;;;;;9.57;4.70;;;;;;;;;;4989415;28;20579;-77
2022/03/12 08:41:41;;;;;;;13.67;4.97;;;;;;;;;;4993534;28;20196;-76
2022/03/12 08:44:09;;;;;;;13.13;5.40;;;;;;;;;;4985368;28;20222;-77
2022/03/12 08:46:37;;;;;;;9.70;5.27;;;;;;;;;;4984908;28;20232;-76
2022/03/12 08:49:05;;;;;;;10.17;5.57;;;;;;;;;;4983752;28;20219;-76
2022/03/12 08:51:32;;;;;;;10.93;5.60;;;;;;;;;;4985891;28;20311;-76
2022/03/12 08:54:01;;;;;;;11.40;5.93;;;;;;;;;;4987306;28;20235;-76
2022/03/12 08:56:28;;;;;;;10.70;5.73;;;;;;;;;;4992599;28;20567;-76
2022/03/12 08:58:57;;;;;;;11.40;6.00;;;;;;;;;;4986348;28;20286;-75
2022/03/12 09:01:25;;;;;;;13.10;6.17;;;;;;;;;;4994671;28;20466;-75
2022/03/12 09:03:57;;;;;;;12.33;6.07;;;;;;;;;;4997387;28;20731;-76
2022/03/12 09:06:27;;;;;;;11.37;5.10;;;;;;;;;;4997020;28;20701;-74
2022/03/12 09:08:54;;;;;;;13.27;5.53;;;;;;;;;;4995996;28;20220;-76
2022/03/12 09:11:21;;;;;;;12.40;5.53;;;;;;;;;;4992077;28;20371;-75
2022/03/12 09:13:50;;;;;;;11.00;5.47;;;;;;;;;;4990731;28;20714;-76
2022/03/12 09:16:18;;;;;;;10.40;5.30;;;;;;;;;;4991191;28;20680;-75
2022/03/12 09:18:46;;;;;;;10.73;5.90;;;;;;;;;;4988666;28;20259;-75
2022/03/12 09:21:15;;;;;;;9.73;5.33;;;;;;;;;;4990488;28;20260;-75
2022/03/12 09:23:42;;;;;;;13.83;5.80;;;;;;;;;;4991638;28;20319;-76
2022/03/12 09:26:13;;;;;;;14.77;5.90;;;;;;;;;;4989663;28;20256;-76
2022/03/12 09:28:41;;;;;;;11.80;5.10;;;;;;;;;;4990806;28;20289;-76
2022/03/12 09:31:09;;;;;;;11.70;5.43;;;;;;;;;;4988221;28;20308;-76
2022/03/12 09:33:38;;;;;;;11.87;6.13;;;;;;;;;;4990322;28;20248;-76
2022/03/12 09:36:06;;;;;;;12.77;5.73;;;;;;;;;;4988982;28;20263;-75
2022/03/12 09:38:34;;;;;;;11.20;5.30;;;;;;;;;;4996480;28;20208;-77
2022/03/12 09:41:04;;;;;;;10.37;5.37;;;;;;;;;;4995645;28;20210;-76
2022/03/12 09:43:32;;;;;;;13.43;5.40;;;;;;;;;;4990075;28;20391;-76
2022/03/12 09:46:00;;;;;;;12.50;5.93;;;;;;;;;;4989296;28;20220;-76
2022/03/12 09:48:27;;;;;;;12.20;6.10;;;;;;;;;;4994111;28;20210;-75
2022/03/12 09:50:55;;;;;;;9.97;4.90;;;;;;;;;;4985814;28;20241;-77
2022/03/12 09:53:22;;;;;;;14.13;6.10;;;;;;;;;;4992971;28;20312;-76
2022/03/12 09:55:51;;;;;;;10.57;5.50;;;;;;;;;;4999264;28;20594;-76
2022/03/12 09:58:18;;;;;;;10.27;5.33;;;;;;;;;;4991862;28;20220;-76
2022/03/12 10:00:46;;;;;;;12.53;5.80;;;;;;;;;;4993945;28;20271;-76
2022/03/12 10:03:13;;;;;;;11.33;6.10;;;;;;;;;;4991280;28;20229;-76
2022/03/12 10:05:40;;;;;;;10.43;5.70;;;;;;;;;;4990168;28;20232;-75
2022/03/12 10:08:07;;;;;;;14.70;5.67;;;;;;;;;;4989046;28;20349;-76
2022/03/12 10:10:35;;;;;;;14.97;6.20;;;;;;;;;;4996534;28;20286;-76
2022/03/12 10:13:04;;;;;;;12.27;6.37;;;;;;;;;;4994702;28;20312;-76
2022/03/12 10:15:32;;;;;;;12.90;6.23;;;;;;;;;;4989205;28;20251;-77
2022/03/12 10:17:59;;;;;;;20.73;6.33;;;;;;;;;;4992554;28;20270;-76
2022/03/12 10:20:26;;;;;;;12.83;5.90;;;;;;;;;;4997464;28;20197;-76
2022/03/12 10:22:55;;;;;;;11.60;6.27;;;;;;;;;;4988054;28;20675;-76
2022/03/12 10:25:23;;;;;;;16.77;5.70;;;;;;;;;;4997645;28;20285;-76
2022/03/12 10:27:50;;;;;;;10.27;5.67;;;;;;;;;;5000472;28;20200;-76
2022/03/12 10:30:19;;;;;;;11.97;6.50;;;;;;;;;;4999018;28;20754;-76
2022/03/12 10:32:48;;;;;;;12.00;5.87;;;;;;;;;;4997756;28;20227;-77
2022/03/12 10:37:43;;;;;;;15.60;6.70;;;;;;;;;;5002274;28;20686;-76
2022/03/12 10:40:11;;;;;;;15.70;6.60;;;;;;;;;;5001216;28;20218;-76
2022/03/12 10:42:39;;;;;;;11.87;7.13;;;;;;;;;;4998242;28;20193;-76
2022/03/12 10:45:08;;;;;;;20.90;9.03;;;;;;;;;;4995496;28;20209;-76
2022/03/12 10:47:41;;;;;;;29.77;16.03;;;;;;;;;;4995913;28;20240;-77
2022/03/12 10:50:10;;;;;;;28.50;16.33;;;;;;;;;;4999956;28;20295;-77
2022/03/12 10:52:41;;;;;;;21.57;9.27;;;;;;;;;;5001915;28;20260;-76
2022/03/12 10:55:13;;;;;;;162.20;81.07;;;;;;;;;;4998906;28;20295;-77
2022/03/12 10:57:40;;;;;;;19.83;10.90;;;;;;;;;;4995024;28;20201;-76
2022/03/12 11:00:10;;;;;;;20.23;12.00;;;;;;;;;;4996373;28;20291;-77
2022/03/12 11:02:38;;;;;;;13.13;6.70;;;;;;;;;;4997194;28;20201;-77
2022/03/12 11:05:07;;;;;;;16.53;7.17;;;;;;;;;;4996134;28;20304;-77
2022/03/12 11:07:34;;;;;;;14.43;7.93;;;;;;;;;;4999526;28;20226;-76
2022/03/12 11:10:01;;;;;;;20.00;8.40;;;;;;;;;;4997772;28;20287;-76
2022/03/12 11:12:35;;;;;;;14.13;8.63;;;;;;;;;;5001650;28;20228;-76
2022/03/12 11:15:05;;;;;;;15.90;7.30;;;;;;;;;;4999572;28;20217;-76
2022/03/12 11:17:35;;;;;;;21.63;11.73;;;;;;;;;;4994501;28;21054;-76
2022/03/12 11:20:04;;;;;;;19.40;7.80;;;;;;;;;;4992126;28;20208;-76
2022/03/12 11:22:33;;;;;;;45.63;22.30;;;;;;;;;;4997415;28;20652;-76
2022/03/12 11:25:00;;;;;;;38.10;18.90;;;;;;;;;;4995604;28;20236;-77
2022/03/12 11:27:32;;;;;;;22.93;12.40;;;;;;;;;;4994544;28;20204;-76
2022/03/12 11:30:01;;;;;;;20.17;10.43;;;;;;;;;;4995863;28;20236;-76
2022/03/12 11:32:30;;;;;;;12.80;6.93;;;;;;;;;;4996908;28;20229;-76
2022/03/12 11:35:04;;;;;;;12.23;6.40;;;;;;;;;;4998102;28;20232;-76
2022/03/12 11:37:32;;;;;;;14.47;7.17;;;;;;;;;;4993152;28;20675;-76
2022/03/12 11:40:03;;;;;;;14.13;6.40;;;;;;;;;;4992264;28;20197;-76
2022/03/12 11:42:33;;;;;;;13.63;7.57;;;;;;;;;;4995876;28;20291;-76
2022/03/12 11:45:01;;;;;;;13.43;7.10;;;;;;;;;;4995355;28;20216;-76
2022/03/12 11:47:30;;;;;;;14.00;7.00;;;;;;;;;;4999001;28;20213;-76
2022/03/12 11:49:58;;;;;;;15.33;6.37;;;;;;;;;;4995990;28;20436;-76
2022/03/12 11:52:25;;;;;;;16.47;7.17;;;;;;;;;;4994119;28;20220;-76
2022/03/12 11:54:54;;;;;;;13.00;7.43;;;;;;;;;;4995566;28;20209;-80
2022/03/12 11:57:23;;;;;;;13.37;6.90;;;;;;;;;;5005419;28;20228;-77
2022/03/12 11:59:51;;;;;;;13.27;6.83;;;;;;;;;;5005295;28;20675;-79
2022/03/12 12:02:29;;;;;;;15.87;6.70;;;;;;;;;;5007030;28;20211;-78
2022/03/12 12:04:58;;;;;;;15.50;7.17;;;;;;;;;;5006553;28;20230;-77
2022/03/12 12:07:27;;;;;;;15.03;6.97;;;;;;;;;;5009059;28;20208;-78
2022/03/12 12:09:55;;;;;;;14.30;6.73;;;;;;;;;;5008484;28;20231;-78
2022/03/12 12:12:26;;;;;;;13.97;6.97;;;;;;;;;;5006262;28;20224;-77
2022/03/12 12:14:57;;;;;;;13.53;7.50;;;;;;;;;;5008341;28;20272;-78
2022/03/12 12:17:25;;;;;;;13.83;7.77;;;;;;;;;;5006600;28;20204;-76
2022/03/12 12:19:52;;;;;;;14.60;7.33;;;;;;;;;;5004312;28;20276;-78
2022/03/12 12:22:19;;;;;;;59.17;30.30;;;;;;;;;;5004719;28;20292;-78
2022/03/12 12:24:46;;;;;;;14.67;8.57;;;;;;;;;;5008604;28;20259;-78
2022/03/12 12:27:14;;;;;;;14.83;7.23;;;;;;;;;;5005160;28;20211;-78
2022/03/12 12:29:48;;;;;;;117.77;40.43;;;;;;;;;;4988081;28;20204;-76
2022/03/12 12:32:16;;;;;;;22.60;10.07;;;;;;;;;;4996567;28;20314;-76
2022/03/12 12:35:16;;;;;;;19.13;9.97;;;;;;;;;;4993543;28;20229;-75
2022/03/12 12:37:45;;;;;;;19.50;10.00;;;;;;;;;;4900834;29;20207;-75
2022/03/12 12:40:20;;;;;;;29.10;13.70;;;;;;;;;;4894996;29;20223;-76
2022/03/12 12:42:47;;;;;;;16.47;9.30;;;;;;;;;;4945713;28;20231;-75
2022/03/12 12:45:26;;;;;;;30.30;15.67;;;;;;;;;;4997965;28;20201;-75
2022/03/12 12:48:10;;;;;;;15.17;7.67;;;;;;;;;;4991330;28;20218;-76
2022/03/12 12:50:37;;;;;;;45.70;23.67;;;;;;;;;;4984089;28;20286;-76
2022/03/12 12:53:25;;;;;;;17.73;8.77;;;;;;;;;;4989442;28;20255;-76
2022/03/12 12:55:52;;;;;;;18.97;9.20;;;;;;;;;;4990858;28;20204;-76
2022/03/12 12:58:20;;;;;;;13.20;7.03;;;;;;;;;;4999877;28;20603;-76
2022/03/12 13:00:49;;;;;;;12.60;6.80;;;;;;;;;;4995809;28;20222;-77
2022/03/12 13:03:18;;;;;;;27.00;12.97;;;;;;;;;;4996600;28;20307;-76
2022/03/12 13:06:06;;;;;;;33.57;15.67;;;;;;;;;;4992628;28;20207;-76
2022/03/12 13:08:44;;;;;;;16.63;9.03;;;;;;;;;;4996902;28;20212;-75
2022/03/12 13:11:27;;;;;;;29.23;13.20;;;;;;;;;;4996289;28;20222;-75
2022/03/12 13:13:58;;;;;;;15.40;8.60;;;;;;;;;;4995108;28;20235;-75
2022/03/12 13:16:27;;;;;;;15.03;8.30;;;;;;;;;;4997596;28;20573;-75
2022/03/12 13:18:54;;;;;;;13.80;7.27;;;;;;;;;;4989141;28;20238;-75
2022/03/12 13:21:33;;;;;;;15.33;7.47;;;;;;;;;;4999313;28;20300;-75
2022/03/12 13:24:00;;;;;;;16.80;8.60;;;;;;;;;;4994728;28;20740;-76
2022/03/12 13:26:27;;;;;;;22.53;9.77;;;;;;;;;;4996009;28;20682;-76
2022/03/12 13:28:56;;;;;;;13.53;7.07;;;;;;;;;;4996182;28;20201;-75
2022/03/12 13:31:28;;;;;;;35.47;17.17;;;;;;;;;;4994768;28;20687;-75
2022/03/12 13:34:00;;;;;;;15.23;7.40;;;;;;;;;;4992904;28;20693;-76
2022/03/12 13:36:28;;;;;;;21.70;10.40;;;;;;;;;;4993478;28;20216;-75
2022/03/12 13:38:56;;;;;;;14.97;7.80;;;;;;;;;;4994155;28;20204;-75
2022/03/12 13:41:24;;;;;;;17.73;7.90;;;;;;;;;;4992593;28;20215;-75
2022/03/12 13:43:51;;;;;;;17.00;7.30;;;;;;;;;;4998274;28;20790;-75
2022/03/12 13:46:20;;;;;;;13.70;6.80;;;;;;;;;;5000404;28;20208;-76
2022/03/12 13:48:59;;;;;;;13.83;7.03;;;;;;;;;;4995197;28;20567;-75
2022/03/12 13:51:26;;;;;;;15.53;6.60;;;;;;;;;;4999125;28;20303;-76
2022/03/12 13:53:57;;;;;;;13.37;6.57;;;;;;;;;;4993420;28;20303;-75
2022/03/12 13:56:24;;;;;;;12.33;7.27;;;;;;;;;;4994114;28;20216;-74
2022/03/12 13:58:53;;;;;;;12.90;6.40;;;;;;;;;;5000243;28;20208;-76
2022/03/12 14:01:30;;;;;;;12.77;6.77;;;;;;;;;;4998939;28;20307;-76
2022/03/12 14:03:59;;;;;;;52.57;23.87;;;;;;;;;;5001314;28;20698;-73
2022/03/12 14:06:34;;;;;;;13.47;7.37;;;;;;;;;;4998612;28;20197;-77
2022/03/12 14:09:02;;;;;;;15.33;6.43;;;;;;;;;;4998638;28;20214;-75
2022/03/12 14:11:37;;;;;;;27.10;12.93;;;;;;;;;;5002224;28;20642;-77
2022/03/12 14:14:06;;;;;;;20.97;9.63;;;;;;;;;;5000562;28;20231;-75
2022/03/12 14:16:35;;;;;;;16.70;7.70;;;;;;;;;;4998451;28;20578;-75
2022/03/12 14:19:05;;;;;;;16.33;6.93;;;;;;;;;;4998855;28;20754;-75
2022/03/12 14:21:36;;;;;;;14.83;7.63;;;;;;;;;;5000173;28;20209;-77
2022/03/12 14:24:10;;;;;;;13.63;7.60;;;;;;;;;;5000737;28;20239;-75
2022/03/12 14:26:49;;;;;;;16.03;7.77;;;;;;;;;;5000332;28;20209;-77
2022/03/12 14:29:18;;;;;;;16.10;7.87;;;;;;;;;;4997058;28;20219;-77
2022/03/12 14:31:45;;;;;;;17.03;7.50;;;;;;;;;;4999520;28;20588;-77
2022/03/12 14:34:14;;;;;;;14.00;7.80;;;;;;;;;;4997813;28;20673;-79
2022/03/12 14:36:43;;;;;;;32.17;14.03;;;;;;;;;;5000359;28;20220;-77
2022/03/12 14:39:14;;;;;;;16.37;9.57;;;;;;;;;;5001506;28;20209;-75
2022/03/12 14:41:41;;;;;;;18.53;9.03;;;;;;;;;;4997098;28;20256;-75
2022/03/12 14:44:11;;;;;;;14.53;8.07;;;;;;;;;;4998361;28;20212;-75